aviador You're here:

KPHL Decoded Metar

PHILADELPHIA in PA, USA
Report Time2017-05-26 12:54:00
UTC Time2017-05-26 13:10:58
Flight Rules vfr VFR
Wind270° at 09 kt
W.Decomp.*RWY 27: 8.9 kt HW 1.6 kt RCW
RWY 26: 8.5 kt HW 3.1 kt RCW
RWY 35: 3.1 kt HW 8.5 kt LCW
W.Rank270° ranks 23
Current wind is below 270° avg. (9.8)
Visibility9999 m
Phenomena:N/A
Clouds:Scattered 017 Hf
Expected CloudBase > 1,600 ft AGL from Temp-Dew spread
CeilingNone
Temp18°C (ISA +3)
Dew Point14°C (78% RH)
AAT16.1°C
QNH1004 hPa
Density Alt945 ft
Elevation59 ft
Report Wrong Elevation
Raw Report
KPHL 261254Z 27009KT 10SM SCT017 18/14 A2966 RMK AO2 SLP044
T01830144=

Extra information for KPHL:More info

Metar Taf Metar & Taf Last 4 Metars F.Rules Stats Wind Profile Meteogram Temp Stats Airport Information Weather charts Add Link Nearby VenuesMetar ALERT Operation Metar Decoded Social comments

AIRNAV info for KPHL